sensor_id;sensor_type;location;lat;lon;timestamp;pressure;altitude;pressure_sealevel;temperature;humidity
74327;BME280;62745;51.060;13.786;2022-08-21T00:00:16;100267.91;;;18.21;96.42
74327;BME280;62745;51.060;13.786;2022-08-21T00:02:52;100262.66;;;18.15;97.06
74327;BME280;62745;51.060;13.786;2022-08-21T00:05:19;100255.84;;;18.12;96.60
74327;BME280;62745;51.060;13.786;2022-08-21T00:07:44;100250.59;;;18.06;97.02
74327;BME280;62745;51.060;13.786;2022-08-21T00:10:10;100246.59;;;17.96;96.74
74327;BME280;62745;51.060;13.786;2022-08-21T00:12:35;100252.38;;;18.00;97.34
74327;BME280;62745;51.060;13.786;2022-08-21T00:15:01;100255.84;;;18.12;96.80
74327;BME280;62745;51.060;13.786;2022-08-21T00:17:27;100256.38;;;18.26;95.72
74327;BME280;62745;51.060;13.786;2022-08-21T00:19:52;100252.28;;;18.23;95.95
74327;BME280;62745;51.060;13.786;2022-08-21T00:22:17;100257.09;;;18.21;96.53
74327;BME280;62745;51.060;13.786;2022-08-21T00:24:43;100257.59;;;18.18;96.57
74327;BME280;62745;51.060;13.786;2022-08-21T00:27:08;100258.75;;;18.22;96.00
74327;BME280;62745;51.060;13.786;2022-08-21T00:29:33;100257.75;;;18.28;96.26
74327;BME280;62745;51.060;13.786;2022-08-21T00:31:58;100259.91;;;18.26;96.25
74327;BME280;62745;51.060;13.786;2022-08-21T00:34:24;100252.59;;;18.27;96.19
74327;BME280;62745;51.060;13.786;2022-08-21T00:36:49;100255.22;;;18.22;95.98
74327;BME280;62745;51.060;13.786;2022-08-21T00:39:15;100259.16;;;18.14;96.36
74327;BME280;62745;51.060;13.786;2022-08-21T00:41:41;100251.50;;;18.11;96.85
74327;BME280;62745;51.060;13.786;2022-08-21T00:44:08;100252.56;;;18.10;96.92
74327;BME280;62745;51.060;13.786;2022-08-21T00:46:34;100255.84;;;18.12;97.09
74327;BME280;62745;51.060;13.786;2022-08-21T00:49:00;100249.22;;;18.20;96.86
74327;BME280;62745;51.060;13.786;2022-08-21T00:51:29;100257.09;;;18.21;96.80
74327;BME280;62745;51.060;13.786;2022-08-21T00:53:59;100252.59;;;18.27;96.48
74327;BME280;62745;51.060;13.786;2022-08-21T00:56:26;100253.91;;;18.24;97.20
74327;BME280;62745;51.060;13.786;2022-08-21T00:58:55;100258.13;;;18.32;96.41
74327;BME280;62745;51.060;13.786;2022-08-21T01:01:21;100254.47;;;18.26;96.34
74327;BME280;62745;51.060;13.786;2022-08-21T01:03:46;100263.91;;;18.24;96.83
74327;BME280;62745;51.060;13.786;2022-08-21T01:06:13;100259.22;;;18.19;96.35
74327;BME280;62745;51.060;13.786;2022-08-21T01:08:38;100265.38;;;18.15;96.27
74327;BME280;62745;51.060;13.786;2022-08-21T01:11:04;100262.06;;;18.13;96.98
74327;BME280;62745;51.060;13.786;2022-08-21T01:13:34;100265.59;;;18.13;96.65
74327;BME280;62745;51.060;13.786;2022-08-21T01:16:03;100261.00;;;18.14;96.45
74327;BME280;62745;51.060;13.786;2022-08-21T01:18:29;100266.19;;;18.15;96.81
74327;BME280;62745;51.060;13.786;2022-08-21T01:21:14;100261.47;;;18.11;96.78
74327;BME280;62745;51.060;13.786;2022-08-21T01:23:43;100260.91;;;18.09;96.43
74327;BME280;62745;51.060;13.786;2022-08-21T01:26:09;100266.31;;;18.09;96.23
74327;BME280;62745;51.060;13.786;2022-08-21T01:28:40;100256.56;;;18.08;96.53
74327;BME280;62745;51.060;13.786;2022-08-21T01:31:09;100263.63;;;18.09;95.98
74327;BME280;62745;51.060;13.786;2022-08-21T01:33:37;100269.28;;;17.95;96.27
74327;BME280;62745;51.060;13.786;2022-08-21T01:36:02;100262.00;;;17.96;96.83
74327;BME280;62745;51.060;13.786;2022-08-21T01:38:28;100266.75;;;17.89;96.43
74327;BME280;62745;51.060;13.786;2022-08-21T01:40:53;100262.16;;;17.89;95.91
74327;BME280;62745;51.060;13.786;2022-08-21T01:43:19;100258.63;;;17.89;95.73
74327;BME280;62745;51.060;13.786;2022-08-21T01:45:44;100263.94;;;17.84;94.71
74327;BME280;62745;51.060;13.786;2022-08-21T01:48:09;100259.59;;;17.83;94.71
74327;BME280;62745;51.060;13.786;2022-08-21T01:50:37;100268.66;;;17.77;95.02
74327;BME280;62745;51.060;13.786;2022-08-21T01:53:02;100269.84;;;17.81;94.75
74327;BME280;62745;51.060;13.786;2022-08-21T01:55:28;100268.66;;;17.77;93.81
74327;BME280;62745;51.060;13.786;2022-08-21T01:57:53;100271.94;;;17.79;94.78
74327;BME280;62745;51.060;13.786;2022-08-21T02:00:20;100266.41;;;17.85;94.50
74327;BME280;62745;51.060;13.786;2022-08-21T02:02:48;100273.81;;;17.78;94.08
74327;BME280;62745;51.060;13.786;2022-08-21T02:05:14;100272.63;;;17.62;93.76
74327;BME280;62745;51.060;13.786;2022-08-21T02:07:43;100272.09;;;17.49;94.98
74327;BME280;62745;51.060;13.786;2022-08-21T02:10:10;100275.47;;;17.44;95.29
74327;BME280;62745;51.060;13.786;2022-08-21T02:12:35;100277.59;;;17.42;95.45
74327;BME280;62745;51.060;13.786;2022-08-21T02:15:03;100276.69;;;17.36;96.07
74327;BME280;62745;51.060;13.786;2022-08-21T02:17:41;100271.75;;;17.33;96.16
74327;BME280;62745;51.060;13.786;2022-08-21T02:20:07;100271.63;;;17.28;95.33
74327;BME280;62745;51.060;13.786;2022-08-21T02:22:32;100254.59;;;17.28;95.97
74327;BME280;62745;51.060;13.786;2022-08-21T02:24:58;100267.41;;;17.32;95.85
74327;BME280;62745;51.060;13.786;2022-08-21T02:27:24;100262.47;;;17.41;96.42
74327;BME280;62745;51.060;13.786;2022-08-21T02:29:49;100263.84;;;17.43;96.52
74327;BME280;62745;51.060;13.786;2022-08-21T02:32:14;100264.81;;;17.49;96.64
74327;BME280;62745;51.060;13.786;2022-08-21T02:34:40;100260.22;;;17.50;96.26
74327;BME280;62745;51.060;13.786;2022-08-21T02:37:05;100262.09;;;17.49;96.71
74327;BME280;62745;51.060;13.786;2022-08-21T02:39:30;100263.38;;;17.47;95.94
74327;BME280;62745;51.060;13.786;2022-08-21T02:41:55;100267.03;;;17.40;96.82
74327;BME280;62745;51.060;13.786;2022-08-21T02:44:21;100272.53;;;17.45;96.93
74327;BME280;62745;51.060;13.786;2022-08-21T02:46:46;100262.22;;;17.42;97.02
74327;BME280;62745;51.060;13.786;2022-08-21T02:49:11;100262.09;;;17.49;97.17
74327;BME280;62745;51.060;13.786;2022-08-21T02:51:37;100260.91;;;17.45;97.26
74327;BME280;62745;51.060;13.786;2022-08-21T02:54:02;100260.69;;;17.47;96.84
74327;BME280;62745;51.060;13.786;2022-08-21T02:56:27;100256.13;;;17.47;97.03
74327;BME280;62745;51.060;13.786;2022-08-21T02:58:53;100258.34;;;17.38;96.33
74327;BME280;62745;51.060;13.786;2022-08-21T03:01:19;100256.84;;;17.31;96.72
74327;BME280;62745;51.060;13.786;2022-08-21T03:03:46;100250.38;;;17.32;97.22
74327;BME280;62745;51.060;13.786;2022-08-21T03:06:15;100256.47;;;17.51;96.95
74327;BME280;62745;51.060;13.786;2022-08-21T03:08:41;100250.00;;;17.40;96.08
74327;BME280;62745;51.060;13.786;2022-08-21T03:11:07;100251.06;;;17.39;97.38
74327;BME280;62745;51.060;13.786;2022-08-21T03:13:32;100255.19;;;17.41;95.93
74327;BME280;62745;51.060;13.786;2022-08-21T03:15:58;100250.81;;;17.52;96.22
74327;BME280;62745;51.060;13.786;2022-08-21T03:18:23;100256.91;;;17.59;96.64
74327;BME280;62745;51.060;13.786;2022-08-21T03:20:48;100260.31;;;17.78;95.61
74327;BME280;62745;51.060;13.786;2022-08-21T03:23:15;100256.09;;;17.82;95.42
74327;BME280;62745;51.060;13.786;2022-08-21T03:25:41;100246.69;;;17.73;95.42
74327;BME280;62745;51.060;13.786;2022-08-21T03:28:12;100244.09;;;17.66;96.28
74327;BME280;62745;51.060;13.786;2022-08-21T03:30:38;100248.69;;;17.66;96.22
74327;BME280;62745;51.060;13.786;2022-08-21T03:33:03;100252.66;;;17.63;96.68
74327;BME280;62745;51.060;13.786;2022-08-21T03:35:29;100265.00;;;17.59;97.25
74327;BME280;62745;51.060;13.786;2022-08-21T03:37:55;100285.09;;;17.63;96.96
74327;BME280;62745;51.060;13.786;2022-08-21T03:40:21;100284.41;;;17.56;96.95
74327;BME280;62745;51.060;13.786;2022-08-21T03:42:46;100277.81;;;17.64;97.16
74327;BME280;62745;51.060;13.786;2022-08-21T03:45:13;100282.84;;;17.60;97.46
74327;BME280;62745;51.060;13.786;2022-08-21T03:47:38;100276.06;;;17.58;97.85
74327;BME280;62745;51.060;13.786;2022-08-21T03:50:04;100282.63;;;17.62;98.12
74327;BME280;62745;51.060;13.786;2022-08-21T03:52:30;100291.09;;;17.54;97.80
74327;BME280;62745;51.060;13.786;2022-08-21T03:54:55;100276.91;;;17.35;97.28
74327;BME280;62745;51.060;13.786;2022-08-21T03:57:21;100278.66;;;17.29;97.27
74327;BME280;62745;51.060;13.786;2022-08-21T03:59:46;100281.94;;;17.43;96.90
74327;BME280;62745;51.060;13.786;2022-08-21T04:02:14;100281.34;;;17.41;97.43
74327;BME280;62745;51.060;13.786;2022-08-21T04:04:42;100284.88;;;17.41;97.02
74327;BME280;62745;51.060;13.786;2022-08-21T04:07:07;100284.88;;;17.41;96.59
74327;BME280;62745;51.060;13.786;2022-08-21T04:09:32;100285.13;;;17.40;97.22
74327;BME280;62745;51.060;13.786;2022-08-21T04:11:58;100292.25;;;17.46;97.10
74327;BME280;62745;51.060;13.786;2022-08-21T04:14:24;100291.94;;;17.54;96.95
74327;BME280;62745;51.060;13.786;2022-08-21T04:16:49;100284.31;;;17.51;97.37
74327;BME280;62745;51.060;13.786;2022-08-21T04:19:15;100294.28;;;17.51;97.53
74327;BME280;62745;51.060;13.786;2022-08-21T04:21:41;100290.75;;;17.50;97.27
74327;BME280;62745;51.060;13.786;2022-08-21T04:24:08;100285.59;;;17.49;97.34
74327;BME280;62745;51.060;13.786;2022-08-21T04:26:35;100295.59;;;17.48;97.25
74327;BME280;62745;51.060;13.786;2022-08-21T04:29:01;100292.50;;;17.44;96.81
74327;BME280;62745;51.060;13.786;2022-08-21T04:31:27;100287.94;;;17.45;97.21
74327;BME280;62745;51.060;13.786;2022-08-21T04:33:54;100295.09;;;17.51;96.78
74327;BME280;62745;51.060;13.786;2022-08-21T04:36:19;100296.84;;;17.57;95.96
74327;BME280;62745;51.060;13.786;2022-08-21T04:38:44;100291.22;;;17.59;96.15
74327;BME280;62745;51.060;13.786;2022-08-21T04:41:10;100287.91;;;17.57;96.38
74327;BME280;62745;51.060;13.786;2022-08-21T04:43:35;100281.81;;;17.61;96.00
74327;BME280;62745;51.060;13.786;2022-08-21T04:46:00;100287.47;;;17.71;95.79
74327;BME280;62745;51.060;13.786;2022-08-21T04:48:26;100272.78;;;17.56;95.83
74327;BME280;62745;51.060;13.786;2022-08-21T04:51:03;100290.28;;;17.65;96.35
74327;BME280;62745;51.060;13.786;2022-08-21T04:53:34;100288.16;;;17.67;96.15
74327;BME280;62745;51.060;13.786;2022-08-21T04:56:04;100297.56;;;17.64;96.12
74327;BME280;62745;51.060;13.786;2022-08-21T04:58:33;100301.31;;;17.75;95.48
74327;BME280;62745;51.060;13.786;2022-08-21T05:01:01;100301.56;;;17.73;95.49
74327;BME280;62745;51.060;13.786;2022-08-21T05:03:27;100302.25;;;17.81;95.16
74327;BME280;62745;51.060;13.786;2022-08-21T05:05:54;100310.22;;;17.87;95.17
74327;BME280;62745;51.060;13.786;2022-08-21T05:08:23;100305.41;;;17.89;95.03
74327;BME280;62745;51.060;13.786;2022-08-21T05:10:50;100316.53;;;17.93;94.97
74327;BME280;62745;51.060;13.786;2022-08-21T05:13:16;100320.31;;;17.92;95.02
74327;BME280;62745;51.060;13.786;2022-08-21T05:15:42;100311.03;;;17.99;94.74
74327;BME280;62745;51.060;13.786;2022-08-21T05:18:07;100299.03;;;17.95;94.99
74327;BME280;62745;51.060;13.786;2022-08-21T05:20:33;100294.69;;;17.94;95.38
74327;BME280;62745;51.060;13.786;2022-08-21T05:23:00;100301.03;;;18.00;94.68
74327;BME280;62745;51.060;13.786;2022-08-21T05:25:26;100310.72;;;18.13;94.43
74327;BME280;62745;51.060;13.786;2022-08-21T05:27:52;100308.28;;;18.11;94.61
74327;BME280;62745;51.060;13.786;2022-08-21T05:30:19;100312.03;;;18.10;94.56
74327;BME280;62745;51.060;13.786;2022-08-21T05:32:45;100306.97;;;18.14;94.65
74327;BME280;62745;51.060;13.786;2022-08-21T05:35:10;100313.56;;;18.18;94.36
74327;BME280;62745;51.060;13.786;2022-08-21T05:37:36;100301.19;;;18.22;94.19
74327;BME280;62745;51.060;13.786;2022-08-21T05:40:02;100306.38;;;18.12;93.21
74327;BME280;62745;51.060;13.786;2022-08-21T05:42:28;100311.28;;;18.26;93.01
74327;BME280;62745;51.060;13.786;2022-08-21T05:44:53;100311.50;;;18.25;93.41
74327;BME280;62745;51.060;13.786;2022-08-21T05:47:18;100311.59;;;18.30;93.64
74327;BME280;62745;51.060;13.786;2022-08-21T05:49:44;100308.28;;;18.40;93.34
74327;BME280;62745;51.060;13.786;2022-08-21T05:52:09;100320.16;;;18.39;93.25
74327;BME280;62745;51.060;13.786;2022-08-21T05:54:36;100315.63;;;18.27;93.15
74327;BME280;62745;51.060;13.786;2022-08-21T05:57:02;100316.81;;;18.31;94.25
74327;BME280;62745;51.060;13.786;2022-08-21T05:59:27;100312.44;;;18.30;93.73
74327;BME280;62745;51.060;13.786;2022-08-21T06:01:52;100319.03;;;18.34;93.57
74327;BME280;62745;51.060;13.786;2022-08-21T06:04:18;100309.56;;;18.49;92.93
74327;BME280;62745;51.060;13.786;2022-08-21T06:06:43;100315.88;;;18.54;93.35
74327;BME280;62745;51.060;13.786;2022-08-21T06:09:09;100318.66;;;18.59;93.81
74327;BME280;62745;51.060;13.786;2022-08-21T06:11:34;100321.72;;;18.63;93.76
74327;BME280;62745;51.060;13.786;2022-08-21T06:14:00;100326.66;;;18.66;93.14
74327;BME280;62745;51.060;13.786;2022-08-21T06:16:26;100333.97;;;18.66;93.31
74327;BME280;62745;51.060;13.786;2022-08-21T06:18:51;100333.31;;;18.75;92.99
74327;BME280;62745;51.060;13.786;2022-08-21T06:21:17;100327.00;;;18.70;92.93
74327;BME280;62745;51.060;13.786;2022-08-21T06:23:43;100332.25;;;18.76;93.51
74327;BME280;62745;51.060;13.786;2022-08-21T06:26:10;100327.16;;;18.80;93.38
74327;BME280;62745;51.060;13.786;2022-08-21T06:28:36;100322.16;;;18.72;93.29
74327;BME280;62745;51.060;13.786;2022-08-21T06:31:13;100322.09;;;18.83;93.93
74327;BME280;62745;51.060;13.786;2022-08-21T06:33:39;100317.09;;;18.92;92.91
74327;BME280;62745;51.060;13.786;2022-08-21T06:36:04;100313.56;;;18.91;92.72
74327;BME280;62745;51.060;13.786;2022-08-21T06:38:29;100315.19;;;18.92;93.02
74327;BME280;62745;51.060;13.786;2022-08-21T06:40:54;100312.91;;;18.84;92.81
74327;BME280;62745;51.060;13.786;2022-08-21T06:43:20;100313.00;;;18.89;93.61
74327;BME280;62745;51.060;13.786;2022-08-21T06:45:45;100308.22;;;18.97;93.43
74327;BME280;62745;51.060;13.786;2022-08-21T06:48:10;100302.25;;;18.94;93.61
74327;BME280;62745;51.060;13.786;2022-08-21T06:50:37;100305.69;;;19.07;93.56
74327;BME280;62745;51.060;13.786;2022-08-21T06:53:06;100306.44;;;19.02;92.83
74327;BME280;62745;51.060;13.786;2022-08-21T06:55:32;100315.47;;;19.08;92.73
74327;BME280;62745;51.060;13.786;2022-08-21T06:57:58;100315.94;;;19.05;92.86
74327;BME280;62745;51.060;13.786;2022-08-21T07:00:24;100326.78;;;18.88;92.17
74327;BME280;62745;51.060;13.786;2022-08-21T07:02:50;100322.69;;;18.85;92.79
74327;BME280;62745;51.060;13.786;2022-08-21T07:05:15;100321.19;;;18.94;92.99
74327;BME280;62745;51.060;13.786;2022-08-21T07:07:40;100327.84;;;18.87;93.06
74327;BME280;62745;51.060;13.786;2022-08-21T07:10:06;100322.09;;;18.83;92.43
74327;BME280;62745;51.060;13.786;2022-08-21T07:12:31;100311.16;;;18.78;93.32
74327;BME280;62745;51.060;13.786;2022-08-21T07:14:57;100322.34;;;18.82;93.54
74327;BME280;62745;51.060;13.786;2022-08-21T07:17:23;100315.63;;;18.84;92.73
74327;BME280;62745;51.060;13.786;2022-08-21T07:19:48;100319.47;;;18.88;92.93
74327;BME280;62745;51.060;13.786;2022-08-21T07:22:15;100313.06;;;18.94;92.75
74327;BME280;62745;51.060;13.786;2022-08-21T07:24:41;100312.19;;;19.06;92.31
74327;BME280;62745;51.060;13.786;2022-08-21T07:27:06;100308.22;;;18.97;92.14
74327;BME280;62745;51.060;13.786;2022-08-21T07:29:31;100307.59;;;19.06;92.37
74327;BME280;62745;51.060;13.786;2022-08-21T07:31:57;100313.31;;;18.76;91.06
74327;BME280;62745;51.060;13.786;2022-08-21T07:34:22;100308.38;;;18.73;91.74
74327;BME280;62745;51.060;13.786;2022-08-21T07:36:47;100310.69;;;18.81;92.32
74327;BME280;62745;51.060;13.786;2022-08-21T07:39:12;100311.59;;;18.87;91.69
74327;BME280;62745;51.060;13.786;2022-08-21T07:41:38;100317.16;;;18.97;91.74
74327;BME280;62745;51.060;13.786;2022-08-21T07:44:03;100328.50;;;19.11;92.33
74327;BME280;62745;51.060;13.786;2022-08-21T07:46:28;100332.38;;;19.15;90.96
74327;BME280;62745;51.060;13.786;2022-08-21T07:48:54;100328.59;;;19.16;90.11
74327;BME280;62745;51.060;13.786;2022-08-21T07:51:22;100332.59;;;19.13;90.07
74327;BME280;62745;51.060;13.786;2022-08-21T07:53:50;100333.91;;;19.11;90.23
74327;BME280;62745;51.060;13.786;2022-08-21T07:56:17;100337.88;;;19.03;90.83
74327;BME280;62745;51.060;13.786;2022-08-21T07:58:42;100340.66;;;19.08;89.86
74327;BME280;62745;51.060;13.786;2022-08-21T08:01:08;100348.84;;;19.13;90.59
74327;BME280;62745;51.060;13.786;2022-08-21T08:03:33;100345.00;;;19.09;90.41
74327;BME280;62745;51.060;13.786;2022-08-21T08:05:59;100345.50;;;19.06;88.80
74327;BME280;62745;51.060;13.786;2022-08-21T08:08:24;100352.63;;;19.12;89.58
74327;BME280;62745;51.060;13.786;2022-08-21T08:10:50;100348.13;;;19.18;88.45
74327;BME280;62745;51.060;13.786;2022-08-21T08:13:16;100343.59;;;19.23;88.33
74327;BME280;62745;51.060;13.786;2022-08-21T08:15:41;100348.78;;;19.25;88.41
74327;BME280;62745;51.060;13.786;2022-08-21T08:18:06;100353.69;;;19.45;88.76
74327;BME280;62745;51.060;13.786;2022-08-21T08:20:32;100346.88;;;19.42;87.41
74327;BME280;62745;51.060;13.786;2022-08-21T08:22:58;100345.22;;;19.41;87.45
74327;BME280;62745;51.060;13.786;2022-08-21T08:25:25;100350.09;;;19.56;85.93
74327;BME280;62745;51.060;13.786;2022-08-21T08:27:51;100343.75;;;19.67;87.70
74327;BME280;62745;51.060;13.786;2022-08-21T08:30:17;100348.56;;;19.82;84.85
74327;BME280;62745;51.060;13.786;2022-08-21T08:32:44;100346.13;;;19.64;84.17
74327;BME280;62745;51.060;13.786;2022-08-21T08:35:10;100356.81;;;19.70;85.50
74327;BME280;62745;51.060;13.786;2022-08-21T08:37:38;100352.72;;;19.90;84.91
74327;BME280;62745;51.060;13.786;2022-08-21T08:40:06;100349.91;;;20.01;86.36
74327;BME280;62745;51.060;13.786;2022-08-21T08:42:35;100351.22;;;20.21;83.61
74327;BME280;62745;51.060;13.786;2022-08-21T08:45:13;100352.00;;;20.16;85.30
74327;BME280;62745;51.060;13.786;2022-08-21T08:47:45;100349.94;;;20.28;82.72
74327;BME280;62745;51.060;13.786;2022-08-21T08:50:18;100355.88;;;20.25;83.37
74327;BME280;62745;51.060;13.786;2022-08-21T08:52:57;100353.69;;;20.22;82.29
74327;BME280;62745;51.060;13.786;2022-08-21T08:55:44;100349.81;;;20.40;84.31
74327;BME280;62745;51.060;13.786;2022-08-21T08:58:20;100353.56;;;20.34;82.66
74327;BME280;62745;51.060;13.786;2022-08-21T09:00:50;100358.25;;;20.17;81.78
74327;BME280;62745;51.060;13.786;2022-08-21T09:03:15;100363.78;;;20.27;81.39
74327;BME280;62745;51.060;13.786;2022-08-21T09:05:50;100354.81;;;20.26;80.37
74327;BME280;62745;51.060;13.786;2022-08-21T09:08:39;100357.72;;;20.20;81.46
74327;BME280;62745;51.060;13.786;2022-08-21T09:16:48;100353.09;;;19.98;81.51
74327;BME280;62745;51.060;13.786;2022-08-21T09:21:58;100342.50;;;19.97;80.72
74327;BME280;62745;51.060;13.786;2022-08-21T09:27:15;100337.59;;;20.37;76.85
74327;BME280;62745;51.060;13.786;2022-08-21T09:29:44;100333.53;;;20.40;79.08
74327;BME280;62745;51.060;13.786;2022-08-21T09:32:30;100334.22;;;20.79;76.65
74327;BME280;62745;51.060;13.786;2022-08-21T09:35:04;100327.00;;;20.90;69.36
74327;BME280;62745;51.060;13.786;2022-08-21T09:37:34;100325.00;;;21.12;69.59
74327;BME280;62745;51.060;13.786;2022-08-21T09:40:02;100331.53;;;21.11;70.40
74327;BME280;62745;51.060;13.786;2022-08-21T09:42:30;100335.06;;;21.12;74.54
74327;BME280;62745;51.060;13.786;2022-08-21T09:47:34;100332.03;;;21.40;69.63
74327;BME280;62745;51.060;13.786;2022-08-21T09:50:18;100327.44;;;21.09;72.61
74327;BME280;62745;51.060;13.786;2022-08-21T09:52:49;100329.84;;;21.05;70.15
74327;BME280;62745;51.060;13.786;2022-08-21T09:55:46;100322.97;;;21.24;69.84
74327;BME280;62745;51.060;13.786;2022-08-21T09:58:35;100332.03;;;21.40;71.68
74327;BME280;62745;51.060;13.786;2022-08-21T10:01:04;100322.97;;;21.24;69.65
74327;BME280;62745;51.060;13.786;2022-08-21T10:03:30;100327.56;;;21.24;69.75
74327;BME280;62745;51.060;13.786;2022-08-21T10:06:03;100321.66;;;21.32;69.26
74327;BME280;62745;51.060;13.786;2022-08-21T10:08:35;100322.41;;;21.65;69.37
74327;BME280;62745;51.060;13.786;2022-08-21T10:11:13;100319.22;;;21.78;67.84
74327;BME280;62745;51.060;13.786;2022-08-21T10:13:54;100324.66;;;21.83;66.02
74327;BME280;62745;51.060;13.786;2022-08-21T10:16:33;100330.06;;;21.68;63.67
74327;BME280;62745;51.060;13.786;2022-08-21T10:24:28;100330.94;;;21.83;61.58
74327;BME280;62745;51.060;13.786;2022-08-21T10:30:06;100325.81;;;21.92;64.13
74327;BME280;62745;51.060;13.786;2022-08-21T10:37:48;100319.31;;;21.14;59.97
74327;BME280;62745;51.060;13.786;2022-08-21T10:40:29;100326.59;;;21.40;63.24
74327;BME280;62745;51.060;13.786;2022-08-21T10:48:58;100320.53;;;21.28;62.39
74327;BME280;62745;51.060;13.786;2022-08-21T10:54:29;100327.56;;;21.61;60.17
74327;BME280;62745;51.060;13.786;2022-08-21T10:57:03;100324.78;;;21.51;61.44
74327;BME280;62745;51.060;13.786;2022-08-21T10:59:48;100320.31;;;21.82;61.61
74327;BME280;62745;51.060;13.786;2022-08-21T11:02:22;100317.22;;;22.10;60.14
74327;BME280;62745;51.060;13.786;2022-08-21T11:04:59;100324.66;;;22.35;60.54
74327;BME280;62745;51.060;13.786;2022-08-21T11:07:50;100318.97;;;22.62;59.30
74327;BME280;62745;51.060;13.786;2022-08-21T11:10:23;100331.03;;;22.04;59.00
74327;BME280;62745;51.060;13.786;2022-08-21T11:12:56;100332.00;;;21.77;60.49
74327;BME280;62745;51.060;13.786;2022-08-21T11:15:29;100329.25;;;22.30;60.06
74327;BME280;62745;51.060;13.786;2022-08-21T11:18:21;100327.38;;;22.40;59.69
74327;BME280;62745;51.060;13.786;2022-08-21T11:21:06;100317.91;;;22.68;59.17
74327;BME280;62745;51.060;13.786;2022-08-21T11:23:43;100324.19;;;22.84;57.91
74327;BME280;62745;51.060;13.786;2022-08-21T11:26:17;100318.19;;;22.72;52.73
74327;BME280;62745;51.060;13.786;2022-08-21T11:28:50;100323.03;;;22.49;52.88
74327;BME280;62745;51.060;13.786;2022-08-21T11:37:07;100324.44;;;23.64;51.60
74327;BME280;62745;51.060;13.786;2022-08-21T11:39:47;100319.63;;;24.10;49.30
74327;BME280;62745;51.060;13.786;2022-08-21T11:44:59;100320.53;;;24.55;47.75
74327;BME280;62745;51.060;13.786;2022-08-21T11:47:45;100315.94;;;23.81;51.05
74327;BME280;62745;51.060;13.786;2022-08-21T11:50:17;100306.47;;;23.42;48.53
74327;BME280;62745;51.060;13.786;2022-08-21T11:52:49;100304.84;;;23.31;50.26
74327;BME280;62745;51.060;13.786;2022-08-21T11:55:23;100302.47;;;23.99;48.17
74327;BME280;62745;51.060;13.786;2022-08-21T11:58:02;100307.63;;;24.11;44.88
74327;BME280;62745;51.060;13.786;2022-08-21T12:00:34;100292.31;;;23.30;47.06
74327;BME280;62745;51.060;13.786;2022-08-21T12:03:25;100296.72;;;24.60;48.48
74327;BME280;62745;51.060;13.786;2022-08-21T12:05:54;100295.84;;;24.99;45.01
74327;BME280;62745;51.060;13.786;2022-08-21T12:11:04;100296.09;;;25.90;43.44
74327;BME280;62745;51.060;13.786;2022-08-21T12:13:33;100286.44;;;26.35;41.54
74327;BME280;62745;51.060;13.786;2022-08-21T12:16:12;100287.38;;;26.06;42.17
74327;BME280;62745;51.060;13.786;2022-08-21T12:18:38;100295.44;;;26.41;41.59
74327;BME280;62745;51.060;13.786;2022-08-21T12:21:25;100293.50;;;26.60;40.23
74327;BME280;62745;51.060;13.786;2022-08-21T12:26:59;100285.03;;;25.23;41.10
74327;BME280;62745;51.060;13.786;2022-08-21T12:34:44;100283.13;;;26.57;38.04
74327;BME280;62745;51.060;13.786;2022-08-21T12:37:46;100281.69;;;27.84;37.75
74327;BME280;62745;51.060;13.786;2022-08-21T12:40:39;100268.63;;;28.17;34.92
74327;BME280;62745;51.060;13.786;2022-08-21T12:43:05;100274.34;;;29.33;33.40
74327;BME280;62745;51.060;13.786;2022-08-21T12:45:41;100262.03;;;29.61;32.87
74327;BME280;62745;51.060;13.786;2022-08-21T12:48:13;100255.31;;;29.45;32.31
74327;BME280;62745;51.060;13.786;2022-08-21T12:50:54;100268.94;;;28.30;31.88
74327;BME280;62745;51.060;13.786;2022-08-21T12:56:12;100258.34;;;28.82;34.03
74327;BME280;62745;51.060;13.786;2022-08-21T12:58:43;100257.97;;;30.07;31.13
74327;BME280;62745;51.060;13.786;2022-08-21T13:01:22;100261.44;;;29.73;30.77
74327;BME280;62745;51.060;13.786;2022-08-21T13:03:51;100261.13;;;27.54;33.80
74327;BME280;62745;51.060;13.786;2022-08-21T13:06:18;100263.56;;;27.28;34.13
74327;BME280;62745;51.060;13.786;2022-08-21T13:08:46;100258.53;;;28.40;34.27
74327;BME280;62745;51.060;13.786;2022-08-21T13:11:15;100246.88;;;29.11;30.66
74327;BME280;62745;51.060;13.786;2022-08-21T13:13:42;100242.53;;;28.87;32.80
74327;BME280;62745;51.060;13.786;2022-08-21T13:16:08;100251.03;;;28.05;34.48
74327;BME280;62745;51.060;13.786;2022-08-21T13:18:36;100243.06;;;27.67;34.72
74327;BME280;62745;51.060;13.786;2022-08-21T13:21:14;100244.31;;;28.11;35.50
74327;BME280;62745;51.060;13.786;2022-08-21T13:23:40;100247.72;;;26.23;36.50
74327;BME280;62745;51.060;13.786;2022-08-21T13:26:17;100248.53;;;26.23;37.42
74327;BME280;62745;51.060;13.786;2022-08-21T13:28:43;100242.28;;;25.99;37.86
74327;BME280;62745;51.060;13.786;2022-08-21T13:31:16;100242.41;;;25.17;39.24
74327;BME280;62745;51.060;13.786;2022-08-21T13:33:43;100239.81;;;25.02;39.36
74327;BME280;62745;51.060;13.786;2022-08-21T13:36:13;100250.53;;;25.27;37.57
74327;BME280;62745;51.060;13.786;2022-08-21T13:38:42;100248.03;;;25.02;40.35
74327;BME280;62745;51.060;13.786;2022-08-21T13:41:31;100248.25;;;25.82;39.02
74327;BME280;62745;51.060;13.786;2022-08-21T13:46:30;100238.34;;;26.80;36.45
74327;BME280;62745;51.060;13.786;2022-08-21T13:48:58;100232.75;;;26.72;36.77